sensor_id;sensor_type;location;lat;lon;timestamp;pressure;altitude;pressure_sealevel;temperature;humidity
75247;BME280;63844;50.042;19.224;2023-01-28T00:00:08;99468.64;;;-1.02;69.77
75247;BME280;63844;50.042;19.224;2023-01-28T00:02:55;99469.64;;;-1.00;70.44
75247;BME280;63844;50.042;19.224;2023-01-28T00:05:22;99466.55;;;-1.01;70.44
75247;BME280;63844;50.042;19.224;2023-01-28T00:07:50;99464.77;;;-0.99;70.59
75247;BME280;63844;50.042;19.224;2023-01-28T00:10:17;99465.84;;;-1.01;69.99
75247;BME280;63844;50.042;19.224;2023-01-28T00:12:44;99465.10;;;-0.97;70.92
75247;BME280;63844;50.042;19.224;2023-01-28T00:15:10;99464.59;;;-0.99;70.75
75247;BME280;63844;50.042;19.224;2023-01-28T00:17:37;99468.23;;;-0.98;70.90
75247;BME280;63844;50.042;19.224;2023-01-28T00:20:04;99467.73;;;-1.00;70.33
75247;BME280;63844;50.042;19.224;2023-01-28T00:22:30;99464.42;;;-0.99;70.38
75247;BME280;63844;50.042;19.224;2023-01-28T00:24:58;99468.93;;;-0.98;70.52
75247;BME280;63844;50.042;19.224;2023-01-28T00:27:24;99471.69;;;-0.96;70.69
75247;BME280;63844;50.042;19.224;2023-01-28T00:29:51;99470.48;;;-0.98;70.35
75247;BME280;63844;50.042;19.224;2023-01-28T00:32:18;99471.91;;;-1.01;70.17
75247;BME280;63844;50.042;19.224;2023-01-28T00:34:44;99475.05;;;-1.01;70.37
75247;BME280;63844;50.042;19.224;2023-01-28T00:37:11;99471.73;;;-1.00;70.59
75247;BME280;63844;50.042;19.224;2023-01-28T00:39:37;99471.52;;;-0.96;70.85
75247;BME280;63844;50.042;19.224;2023-01-28T00:42:04;99475.49;;;-0.95;70.64
75247;BME280;63844;50.042;19.224;2023-01-28T00:44:31;99469.78;;;-0.96;70.84
75247;BME280;63844;50.042;19.224;2023-01-28T00:46:57;99473.08;;;-0.96;71.03
75247;BME280;63844;50.042;19.224;2023-01-28T00:49:24;99472.21;;;-0.96;71.00
75247;BME280;63844;50.042;19.224;2023-01-28T00:51:50;99466.83;;;-0.97;70.83
75247;BME280;63844;50.042;19.224;2023-01-28T00:54:16;99465.28;;;-0.98;70.68
75247;BME280;63844;50.042;19.224;2023-01-28T00:56:43;99465.45;;;-0.98;70.97
75247;BME280;63844;50.042;19.224;2023-01-28T00:59:09;99463.38;;;-0.98;70.72
75247;BME280;63844;50.042;19.224;2023-01-28T01:01:36;99464.23;;;-0.97;70.97
75247;BME280;63844;50.042;19.224;2023-01-28T01:04:03;99462.49;;;-0.98;70.59
75247;BME280;63844;50.042;19.224;2023-01-28T01:06:35;99460.74;;;-0.96;71.13
75247;BME280;63844;50.042;19.224;2023-01-28T01:09:04;99460.60;;;-0.99;70.64
75247;BME280;63844;50.042;19.224;2023-01-28T01:11:31;99461.81;;;-0.98;71.12
75247;BME280;63844;50.042;19.224;2023-01-28T01:13:59;99461.98;;;-0.97;71.08
75247;BME280;63844;50.042;19.224;2023-01-28T01:16:28;99468.56;;;-0.97;71.25
75247;BME280;63844;50.042;19.224;2023-01-28T01:18:55;99472.05;;;-0.97;71.23
75247;BME280;63844;50.042;19.224;2023-01-28T01:21:24;99473.97;;;-0.99;71.11
75247;BME280;63844;50.042;19.224;2023-01-28T01:23:52;99472.56;;;-0.96;71.63
75247;BME280;63844;50.042;19.224;2023-01-28T01:26:19;99474.11;;;-0.96;71.41
75247;BME280;63844;50.042;19.224;2023-01-28T01:28:45;99477.23;;;-0.95;71.47
75247;BME280;63844;50.042;19.224;2023-01-28T01:31:14;99479.69;;;-0.98;71.22
75247;BME280;63844;50.042;19.224;2023-01-28T01:33:43;99484.73;;;-0.99;71.49
75247;BME280;63844;50.042;19.224;2023-01-28T01:36:12;99485.04;;;-0.95;71.63
75247;BME280;63844;50.042;19.224;2023-01-28T01:38:38;99487.33;;;-0.97;71.58
75247;BME280;63844;50.042;19.224;2023-01-28T01:41:06;99484.55;;;-0.96;71.65
75247;BME280;63844;50.042;19.224;2023-01-28T01:43:53;99486.11;;;-0.96;71.35
75247;BME280;63844;50.042;19.224;2023-01-28T01:49:24;99491.50;;;-0.96;71.71
75247;BME280;63844;50.042;19.224;2023-01-28T01:52:10;99495.51;;;-0.97;71.74
75247;BME280;63844;50.042;19.224;2023-01-28T01:54:40;99497.58;;;-0.96;71.97
75247;BME280;63844;50.042;19.224;2023-01-28T01:57:14;99498.44;;;-0.95;72.15
75247;BME280;63844;50.042;19.224;2023-01-28T01:59:43;99498.96;;;-0.97;72.01
75247;BME280;63844;50.042;19.224;2023-01-28T02:02:10;99497.25;;;-0.99;71.92
75247;BME280;63844;50.042;19.224;2023-01-28T02:04:40;99498.80;;;-0.97;72.14
75247;BME280;63844;50.042;19.224;2023-01-28T02:07:08;99499.33;;;-0.97;72.30
75247;BME280;63844;50.042;19.224;2023-01-28T02:09:36;99502.80;;;-0.98;72.38
75247;BME280;63844;50.042;19.224;2023-01-28T02:12:10;99502.63;;;-0.98;72.15
75247;BME280;63844;50.042;19.224;2023-01-28T02:14:43;99506.11;;;-0.99;72.28
75247;BME280;63844;50.042;19.224;2023-01-28T02:17:11;99503.02;;;-1.02;72.29
75247;BME280;63844;50.042;19.224;2023-01-28T02:19:48;99504.58;;;-1.02;72.51
75247;BME280;63844;50.042;19.224;2023-01-28T02:22:36;99506.16;;;-1.03;72.51
75247;BME280;63844;50.042;19.224;2023-01-28T02:30:51;99504.40;;;-1.01;72.65
75247;BME280;63844;50.042;19.224;2023-01-28T02:33:54;99502.61;;;-0.97;72.62
75247;BME280;63844;50.042;19.224;2023-01-28T02:36:29;99499.86;;;-0.98;72.59
75247;BME280;63844;50.042;19.224;2023-01-28T02:39:03;99501.80;;;-1.00;72.77
75247;BME280;63844;50.042;19.224;2023-01-28T02:41:37;99503.87;;;-1.00;72.79
75247;BME280;63844;50.042;19.224;2023-01-28T02:44:06;99502.64;;;-1.00;72.97
75247;BME280;63844;50.042;19.224;2023-01-28T02:46:34;99507.65;;;-0.97;72.94
75247;BME280;63844;50.042;19.224;2023-01-28T02:49:27;99505.23;;;-0.97;72.77
75247;BME280;63844;50.042;19.224;2023-01-28T02:52:03;99502.10;;;-0.97;72.76
75247;BME280;63844;50.042;19.224;2023-01-28T03:02:36;99499.72;;;-1.02;73.09
75247;BME280;63844;50.042;19.224;2023-01-28T03:05:15;99503.16;;;-0.99;73.18
75247;BME280;63844;50.042;19.224;2023-01-28T03:07:45;99507.01;;;-1.01;73.24
75247;BME280;63844;50.042;19.224;2023-01-28T03:10:16;99509.09;;;-1.01;73.04
75247;BME280;63844;50.042;19.224;2023-01-28T03:12:45;99507.88;;;-1.01;73.16
75247;BME280;63844;50.042;19.224;2023-01-28T03:15:45;99511.88;;;-1.02;72.98
75247;BME280;63844;50.042;19.224;2023-01-28T03:18:40;99505.63;;;-1.02;72.86
75247;BME280;63844;50.042;19.224;2023-01-28T03:21:32;99502.36;;;-1.04;73.08
75247;BME280;63844;50.042;19.224;2023-01-28T03:24:25;99501.66;;;-1.05;72.97
75247;BME280;63844;50.042;19.224;2023-01-28T03:30:35;99502.55;;;-1.06;73.27
75247;BME280;63844;50.042;19.224;2023-01-28T03:33:23;99507.77;;;-1.07;73.27
75247;BME280;63844;50.042;19.224;2023-01-28T03:36:10;99507.60;;;-1.08;73.35
75247;BME280;63844;50.042;19.224;2023-01-28T03:38:55;99507.25;;;-1.07;73.17
75247;BME280;63844;50.042;19.224;2023-01-28T03:41:24;99509.81;;;-1.03;73.20
75247;BME280;63844;50.042;19.224;2023-01-28T03:43:51;99513.15;;;-1.07;72.99
75247;BME280;63844;50.042;19.224;2023-01-28T03:46:18;99515.08;;;-1.09;73.25
75247;BME280;63844;50.042;19.224;2023-01-28T03:48:45;99514.55;;;-1.08;73.44
75247;BME280;63844;50.042;19.224;2023-01-28T03:51:11;99511.07;;;-1.07;73.22
75247;BME280;63844;50.042;19.224;2023-01-28T03:53:38;99512.15;;;-1.11;73.25
75247;BME280;63844;50.042;19.224;2023-01-28T03:56:05;99513.88;;;-1.10;73.33
75247;BME280;63844;50.042;19.224;2023-01-28T03:58:32;99512.54;;;-1.15;73.30
75247;BME280;63844;50.042;19.224;2023-01-28T04:01:19;99513.95;;;-1.18;73.51
75247;BME280;63844;50.042;19.224;2023-01-28T04:03:45;99512.55;;;-1.17;73.70
75247;BME280;63844;50.042;19.224;2023-01-28T04:06:12;99512.03;;;-1.17;73.31
75247;BME280;63844;50.042;19.224;2023-01-28T04:08:39;99511.02;;;-1.20;73.54
75247;BME280;63844;50.042;19.224;2023-01-28T04:11:05;99515.52;;;-1.18;73.71
75247;BME280;63844;50.042;19.224;2023-01-28T04:13:41;99516.54;;;-1.17;73.65
75247;BME280;63844;50.042;19.224;2023-01-28T04:16:09;99519.84;;;-1.17;73.63
75247;BME280;63844;50.042;19.224;2023-01-28T04:18:36;99518.61;;;-1.15;73.52
75247;BME280;63844;50.042;19.224;2023-01-28T04:21:03;99518.63;;;-1.17;73.77
75247;BME280;63844;50.042;19.224;2023-01-28T04:23:30;99521.76;;;-1.16;73.73
75247;BME280;63844;50.042;19.224;2023-01-28T04:25:56;99519.67;;;-1.16;73.63
75247;BME280;63844;50.042;19.224;2023-01-28T04:28:23;99518.44;;;-1.14;73.87
75247;BME280;63844;50.042;19.224;2023-01-28T04:30:51;99520.36;;;-1.16;74.01
75247;BME280;63844;50.042;19.224;2023-01-28T04:33:18;99519.00;;;-1.19;74.21
75247;BME280;63844;50.042;19.224;2023-01-28T04:35:44;99522.15;;;-1.20;74.02
75247;BME280;63844;50.042;19.224;2023-01-28T04:38:10;99524.94;;;-1.21;74.34
75247;BME280;63844;50.042;19.224;2023-01-28T04:40:37;99524.42;;;-1.21;74.28
75247;BME280;63844;50.042;19.224;2023-01-28T04:43:03;99528.55;;;-1.19;74.32
75247;BME280;63844;50.042;19.224;2023-01-28T04:45:31;99529.25;;;-1.20;74.50
75247;BME280;63844;50.042;19.224;2023-01-28T04:47:57;99530.98;;;-1.18;74.27
75247;BME280;63844;50.042;19.224;2023-01-28T04:50:24;99530.08;;;-1.15;74.26
75247;BME280;63844;50.042;19.224;2023-01-28T04:52:50;99533.75;;;-1.17;74.26
75247;BME280;63844;50.042;19.224;2023-01-28T04:55:17;99532.02;;;-1.18;74.51
75247;BME280;63844;50.042;19.224;2023-01-28T04:57:43;99532.73;;;-1.19;74.31
75247;BME280;63844;50.042;19.224;2023-01-28T05:00:10;99531.67;;;-1.18;74.73
75247;BME280;63844;50.042;19.224;2023-01-28T05:02:36;99531.65;;;-1.15;74.66
75247;BME280;63844;50.042;19.224;2023-01-28T05:05:03;99534.98;;;-1.18;74.59
75247;BME280;63844;50.042;19.224;2023-01-28T05:07:35;99536.20;;;-1.19;74.73
75247;BME280;63844;50.042;19.224;2023-01-28T05:10:02;99534.80;;;-1.18;74.58
75247;BME280;63844;50.042;19.224;2023-01-28T05:12:29;99536.00;;;-1.17;74.61
75247;BME280;63844;50.042;19.224;2023-01-28T05:14:58;99544.67;;;-1.16;74.72
75247;BME280;63844;50.042;19.224;2023-01-28T05:17:28;99546.95;;;-1.18;74.95
75247;BME280;63844;50.042;19.224;2023-01-28T05:19:55;99546.94;;;-1.16;74.88
75247;BME280;63844;50.042;19.224;2023-01-28T05:22:21;99545.72;;;-1.16;74.82
75247;BME280;63844;50.042;19.224;2023-01-28T05:24:48;99540.50;;;-1.17;75.05
75247;BME280;63844;50.042;19.224;2023-01-28T05:27:14;99542.24;;;-1.17;74.89
75247;BME280;63844;50.042;19.224;2023-01-28T05:29:41;99541.38;;;-1.17;75.31
75247;BME280;63844;50.042;19.224;2023-01-28T05:32:07;99539.63;;;-1.14;74.98
75247;BME280;63844;50.042;19.224;2023-01-28T05:34:34;99543.44;;;-1.15;75.08
75247;BME280;63844;50.042;19.224;2023-01-28T05:37:00;99543.11;;;-1.17;75.01
75247;BME280;63844;50.042;19.224;2023-01-28T05:39:27;99542.41;;;-1.15;74.86
75247;BME280;63844;50.042;19.224;2023-01-28T05:41:53;99543.80;;;-1.16;74.93
75247;BME280;63844;50.042;19.224;2023-01-28T05:44:19;99548.15;;;-1.16;75.19
75247;BME280;63844;50.042;19.224;2023-01-28T05:46:46;99549.20;;;-1.16;75.07
75247;BME280;63844;50.042;19.224;2023-01-28T05:49:12;99554.78;;;-1.19;74.90
75247;BME280;63844;50.042;19.224;2023-01-28T05:51:39;99557.40;;;-1.20;75.41
75247;BME280;63844;50.042;19.224;2023-01-28T05:54:06;99559.99;;;-1.19;75.35
75247;BME280;63844;50.042;19.224;2023-01-28T05:56:32;99562.77;;;-1.19;75.13
75247;BME280;63844;50.042;19.224;2023-01-28T05:59:00;99567.31;;;-1.21;75.18
75247;BME280;63844;50.042;19.224;2023-01-28T06:01:27;99570.45;;;-1.24;75.19
75247;BME280;63844;50.042;19.224;2023-01-28T06:03:53;99574.98;;;-1.26;75.56
75247;BME280;63844;50.042;19.224;2023-01-28T06:06:20;99581.23;;;-1.25;75.63
75247;BME280;63844;50.042;19.224;2023-01-28T06:08:46;99587.83;;;-1.24;75.71
75247;BME280;63844;50.042;19.224;2023-01-28T06:11:13;99591.64;;;-1.24;75.38
75247;BME280;63844;50.042;19.224;2023-01-28T06:13:39;99593.20;;;-1.22;75.49
75247;BME280;63844;50.042;19.224;2023-01-28T06:16:07;99597.19;;;-1.22;75.50
75247;BME280;63844;50.042;19.224;2023-01-28T06:18:34;99599.62;;;-1.23;75.74
75247;BME280;63844;50.042;19.224;2023-01-28T06:21:00;99602.73;;;-1.22;75.64
75247;BME280;63844;50.042;19.224;2023-01-28T06:23:27;99603.23;;;-1.17;75.43
75247;BME280;63844;50.042;19.224;2023-01-28T06:25:56;99613.46;;;-1.16;75.37
75247;BME280;63844;50.042;19.224;2023-01-28T06:28:23;99613.83;;;-1.19;75.38
75247;BME280;63844;50.042;19.224;2023-01-28T06:30:53;99614.17;;;-1.19;75.22
75247;BME280;63844;50.042;19.224;2023-01-28T06:33:20;99614.33;;;-1.17;75.48
75247;BME280;63844;50.042;19.224;2023-01-28T06:35:47;99616.23;;;-1.15;75.32
75247;BME280;63844;50.042;19.224;2023-01-28T06:38:13;99616.23;;;-1.16;75.53
75247;BME280;63844;50.042;19.224;2023-01-28T06:40:40;99621.26;;;-1.15;75.21
75247;BME280;63844;50.042;19.224;2023-01-28T06:43:06;99619.69;;;-1.13;75.23
75247;BME280;63844;50.042;19.224;2023-01-28T06:45:33;99621.07;;;-1.13;75.28
75247;BME280;63844;50.042;19.224;2023-01-28T06:47:59;99620.88;;;-1.09;75.14
75247;BME280;63844;50.042;19.224;2023-01-28T06:50:26;99624.34;;;-1.10;75.09
75247;BME280;63844;50.042;19.224;2023-01-28T06:52:52;99628.52;;;-1.10;75.17
75247;BME280;63844;50.042;19.224;2023-01-28T06:55:19;99631.79;;;-1.07;75.26
75247;BME280;63844;50.042;19.224;2023-01-28T06:57:45;99630.77;;;-1.10;75.27
75247;BME280;63844;50.042;19.224;2023-01-28T07:00:12;99635.10;;;-1.09;75.32
75247;BME280;63844;50.042;19.224;2023-01-28T07:02:41;99635.79;;;-1.09;75.19
75247;BME280;63844;50.042;19.224;2023-01-28T07:05:08;99644.69;;;-1.11;75.28
75247;BME280;63844;50.042;19.224;2023-01-28T07:07:34;99646.62;;;-1.15;75.55
75247;BME280;63844;50.042;19.224;2023-01-28T07:10:01;99649.91;;;-1.15;75.36
75247;BME280;63844;50.042;19.224;2023-01-28T07:12:28;99648.88;;;-1.16;75.46
75247;BME280;63844;50.042;19.224;2023-01-28T07:14:54;99652.37;;;-1.16;75.13
75247;BME280;63844;50.042;19.224;2023-01-28T07:17:21;99654.44;;;-1.15;75.05
75247;BME280;63844;50.042;19.224;2023-01-28T07:19:47;99658.63;;;-1.17;75.02
75247;BME280;63844;50.042;19.224;2023-01-28T07:22:14;99659.46;;;-1.15;74.87
75247;BME280;63844;50.042;19.224;2023-01-28T07:24:40;99658.04;;;-1.09;75.12
75247;BME280;63844;50.042;19.224;2023-01-28T07:27:07;99654.92;;;-1.09;74.83
75247;BME280;63844;50.042;19.224;2023-01-28T07:29:33;99654.38;;;-1.07;74.96
75247;BME280;63844;50.042;19.224;2023-01-28T07:31:59;99659.77;;;-1.08;74.86
75247;BME280;63844;50.042;19.224;2023-01-28T07:34:26;99657.49;;;-1.07;75.09
75247;BME280;63844;50.042;19.224;2023-01-28T07:36:53;99660.08;;;-1.03;75.03
75247;BME280;63844;50.042;19.224;2023-01-28T07:39:20;99664.42;;;-1.03;74.92
75247;BME280;63844;50.042;19.224;2023-01-28T07:41:46;99664.09;;;-1.04;74.12
75247;BME280;63844;50.042;19.224;2023-01-28T07:44:13;99662.16;;;-1.04;74.47
75247;BME280;63844;50.042;19.224;2023-01-28T07:46:39;99660.95;;;-1.05;74.03
75247;BME280;63844;50.042;19.224;2023-01-28T07:49:06;99663.35;;;-1.01;74.15
75247;BME280;63844;50.042;19.224;2023-01-28T07:51:32;99665.40;;;-0.97;74.22
75247;BME280;63844;50.042;19.224;2023-01-28T07:53:59;99664.52;;;-0.96;74.10
75247;BME280;63844;50.042;19.224;2023-01-28T07:56:26;99667.31;;;-0.96;74.07
75247;BME280;63844;50.042;19.224;2023-01-28T07:58:54;99670.41;;;-0.94;74.02
75247;BME280;63844;50.042;19.224;2023-01-28T08:01:21;99672.36;;;-0.97;73.56
75247;BME280;63844;50.042;19.224;2023-01-28T08:03:47;99672.02;;;-0.98;73.48
75247;BME280;63844;50.042;19.224;2023-01-28T08:06:14;99673.05;;;-0.97;73.71
75247;BME280;63844;50.042;19.224;2023-01-28T08:08:40;99670.96;;;-0.95;74.02
75247;BME280;63844;50.042;19.224;2023-01-28T08:11:08;99670.23;;;-0.94;73.90
75247;BME280;63844;50.042;19.224;2023-01-28T08:13:36;99675.43;;;-0.91;74.12
75247;BME280;63844;50.042;19.224;2023-01-28T08:16:03;99677.34;;;-0.92;73.45
75247;BME280;63844;50.042;19.224;2023-01-28T08:18:30;99683.57;;;-0.88;73.81
75247;BME280;63844;50.042;19.224;2023-01-28T08:20:57;99683.38;;;-0.86;73.97
75247;BME280;63844;50.042;19.224;2023-01-28T08:23:25;99684.08;;;-0.84;73.77
75247;BME280;63844;50.042;19.224;2023-01-28T08:25:52;99684.95;;;-0.85;73.71
75247;BME280;63844;50.042;19.224;2023-01-28T08:28:20;99680.23;;;-0.83;73.72
75247;BME280;63844;50.042;19.224;2023-01-28T08:30:47;99680.57;;;-0.82;73.47
75247;BME280;63844;50.042;19.224;2023-01-28T08:33:14;99680.73;;;-0.81;73.47
75247;BME280;63844;50.042;19.224;2023-01-28T08:35:42;99676.73;;;-0.81;73.46
75247;BME280;63844;50.042;19.224;2023-01-28T08:38:10;99682.77;;;-0.77;73.52
75247;BME280;63844;50.042;19.224;2023-01-28T08:40:37;99685.04;;;-0.76;73.55
75247;BME280;63844;50.042;19.224;2023-01-28T08:43:03;99688.67;;;-0.75;73.55
75247;BME280;63844;50.042;19.224;2023-01-28T08:45:30;99692.48;;;-0.74;73.48
75247;BME280;63844;50.042;19.224;2023-01-28T08:47:59;99696.14;;;-0.75;73.35
75247;BME280;63844;50.042;19.224;2023-01-28T08:50:29;99702.39;;;-0.75;73.54
75247;BME280;63844;50.042;19.224;2023-01-28T08:53:00;99701.19;;;-0.77;73.30
75247;BME280;63844;50.042;19.224;2023-01-28T08:55:28;99706.77;;;-0.80;73.43
75247;BME280;63844;50.042;19.224;2023-01-28T08:57:55;99706.64;;;-0.83;73.37
75247;BME280;63844;50.042;19.224;2023-01-28T09:00:22;99708.56;;;-0.83;73.62
75247;BME280;63844;50.042;19.224;2023-01-28T09:02:52;99709.59;;;-0.81;73.61
75247;BME280;63844;50.042;19.224;2023-01-28T09:05:20;99708.34;;;-0.80;73.39
75247;BME280;63844;50.042;19.224;2023-01-28T09:07:47;99706.10;;;-0.81;73.46
75247;BME280;63844;50.042;19.224;2023-01-28T09:10:14;99709.41;;;-0.82;73.45
75247;BME280;63844;50.042;19.224;2023-01-28T09:12:45;99708.52;;;-0.80;73.33
75247;BME280;63844;50.042;19.224;2023-01-28T09:15:12;99709.27;;;-0.84;72.99
75247;BME280;63844;50.042;19.224;2023-01-28T09:17:39;99711.14;;;-0.81;73.59
75247;BME280;63844;50.042;19.224;2023-01-28T09:20:06;99709.41;;;-0.81;73.27
75247;BME280;63844;50.042;19.224;2023-01-28T09:22:33;99708.66;;;-0.78;73.10
75247;BME280;63844;50.042;19.224;2023-01-28T09:25:00;99712.98;;;-0.73;73.31
75247;BME280;63844;50.042;19.224;2023-01-28T09:27:26;99709.52;;;-0.73;73.46
75247;BME280;63844;50.042;19.224;2023-01-28T09:29:53;99707.77;;;-0.73;73.15
75247;BME280;63844;50.042;19.224;2023-01-28T09:32:19;99708.94;;;-0.68;73.21
75247;BME280;63844;50.042;19.224;2023-01-28T09:34:46;99710.50;;;-0.67;72.58
75247;BME280;63844;50.042;19.224;2023-01-28T09:37:12;99709.95;;;-0.64;72.87
75247;BME280;63844;50.042;19.224;2023-01-28T09:39:40;99709.08;;;-0.62;73.10
75247;BME280;63844;50.042;19.224;2023-01-28T09:42:26;99713.23;;;-0.61;72.95
75247;BME280;63844;50.042;19.224;2023-01-28T09:45:12;99713.52;;;-0.56;72.84
75247;BME280;63844;50.042;19.224;2023-01-28T09:47:53;99712.51;;;-0.58;72.21
75247;BME280;63844;50.042;19.224;2023-01-28T09:52:56;99712.89;;;-0.61;72.30
75247;BME280;63844;50.042;19.224;2023-01-28T09:55:38;99710.77;;;-0.59;72.30
75247;BME280;63844;50.042;19.224;2023-01-28T09:58:09;99714.39;;;-0.55;72.40
75247;BME280;63844;50.042;19.224;2023-01-28T10:00:53;99713.70;;;-0.56;72.32
75247;BME280;63844;50.042;19.224;2023-01-28T10:06:40;99710.08;;;-0.58;72.57
75247;BME280;63844;50.042;19.224;2023-01-28T10:17:34;99703.65;;;-0.59;72.61
75247;BME280;63844;50.042;19.224;2023-01-28T10:20:12;99705.17;;;-0.55;73.08
75247;BME280;63844;50.042;19.224;2023-01-28T10:22:45;99703.41;;;-0.53;73.29
75247;BME280;63844;50.042;19.224;2023-01-28T10:25:25;99704.97;;;-0.52;72.68
75247;BME280;63844;50.042;19.224;2023-01-28T10:27:53;99702.03;;;-0.53;72.21
75247;BME280;63844;50.042;19.224;2023-01-28T10:30:24;99703.38;;;-0.48;72.47
75247;BME280;63844;50.042;19.224;2023-01-28T10:33:02;99704.55;;;-0.45;72.02
75247;BME280;63844;50.042;19.224;2023-01-28T10:35:40;99703.98;;;-0.41;72.51
75247;BME280;63844;50.042;19.224;2023-01-28T10:38:11;99704.16;;;-0.41;72.46
75247;BME280;63844;50.042;19.224;2023-01-28T10:40:40;99706.40;;;-0.39;71.92
75247;BME280;63844;50.042;19.224;2023-01-28T10:43:08;99707.83;;;-0.42;71.42
75247;BME280;63844;50.042;19.224;2023-01-28T10:45:39;99715.80;;;-0.39;70.88
75247;BME280;63844;50.042;19.224;2023-01-28T10:51:13;99708.53;;;-0.42;70.48
75247;BME280;63844;50.042;19.224;2023-01-28T10:53:44;99705.19;;;-0.39;71.44
75247;BME280;63844;50.042;19.224;2023-01-28T10:56:15;99705.74;;;-0.42;70.69
75247;BME280;63844;50.042;19.224;2023-01-28T11:01:19;99705.58;;;-0.44;70.48
75247;BME280;63844;50.042;19.224;2023-01-28T11:03:57;99703.46;;;-0.41;70.87
75247;BME280;63844;50.042;19.224;2023-01-28T11:06:26;99705.37;;;-0.40;71.01
75247;BME280;63844;50.042;19.224;2023-01-28T11:08:53;99707.62;;;-0.39;71.00
75247;BME280;63844;50.042;19.224;2023-01-28T11:11:27;99706.23;;;-0.41;70.29
75247;BME280;63844;50.042;19.224;2023-01-28T11:13:54;99704.81;;;-0.37;71.07
75247;BME280;63844;50.042;19.224;2023-01-28T11:16:24;99706.02;;;-0.34;70.45
75247;BME280;63844;50.042;19.224;2023-01-28T11:18:54;99704.10;;;-0.35;70.55
75247;BME280;63844;50.042;19.224;2023-01-28T11:21:25;99704.96;;;-0.34;70.55
75247;BME280;63844;50.042;19.224;2023-01-28T11:23:56;99705.12;;;-0.32;70.70
75247;BME280;63844;50.042;19.224;2023-01-28T11:26:27;99702.73;;;-0.37;71.55
75247;BME280;63844;50.042;19.224;2023-01-28T11:28:54;99702.71;;;-0.35;72.08
75247;BME280;63844;50.042;19.224;2023-01-28T11:31:22;99704.40;;;-0.30;72.87
75247;BME280;63844;50.042;19.224;2023-01-28T11:33:57;99704.21;;;-0.29;72.90
75247;BME280;63844;50.042;19.224;2023-01-28T11:36:27;99704.55;;;-0.28;73.01
75247;BME280;63844;50.042;19.224;2023-01-28T11:38:57;99707.50;;;-0.27;72.97
75247;BME280;63844;50.042;19.224;2023-01-28T11:41:32;99707.94;;;-0.37;74.16
75247;BME280;63844;50.042;19.224;2023-01-28T11:44:10;99704.09;;;-0.33;74.65
75247;BME280;63844;50.042;19.224;2023-01-28T11:46:51;99700.53;;;-0.26;74.41
75247;BME280;63844;50.042;19.224;2023-01-28T11:49:54;99696.77;;;-0.16;74.28
75247;BME280;63844;50.042;19.224;2023-01-28T11:52:52;99695.80;;;-0.08;73.59
75247;BME280;63844;50.042;19.224;2023-01-28T11:55:40;99694.19;;;-0.04;72.58
75247;BME280;63844;50.042;19.224;2023-01-28T11:58:59;99692.80;;;-0.04;72.58
75247;BME280;63844;50.042;19.224;2023-01-28T12:08:03;99689.39;;;0.05;72.47
75247;BME280;63844;50.042;19.224;2023-01-28T12:14:06;99682.95;;;0.05;72.04
75247;BME280;63844;50.042;19.224;2023-01-28T12:17:01;99681.92;;;0.04;71.82
75247;BME280;63844;50.042;19.224;2023-01-28T12:28:28;99687.11;;;-0.08;72.72
75247;BME280;63844;50.042;19.224;2023-01-28T12:31:04;99687.85;;;-0.10;72.76
75247;BME280;63844;50.042;19.224;2023-01-28T12:36:54;99683.98;;;-0.09;72.55
75247;BME280;63844;50.042;19.224;2023-01-28T12:39:34;99688.88;;;-0.09;72.06
75247;BME280;63844;50.042;19.224;2023-01-28T12:42:12;99688.14;;;-0.07;72.34
75247;BME280;63844;50.042;19.224;2023-01-28T12:44:47;99687.21;;;-0.03;72.26
75247;BME280;63844;50.042;19.224;2023-01-28T12:47:19;99683.34;;;0.02;72.35
75247;BME280;63844;50.042;19.224;2023-01-28T12:49:58;99680.73;;;0.02;71.48
75247;BME280;63844;50.042;19.224;2023-01-28T12:52:36;99680.52;;;0.06;71.17
75247;BME280;63844;50.042;19.224;2023-01-28T12:55:15;99681.33;;;0.09;71.39
75247;BME280;63844;50.042;19.224;2023-01-28T12:57:43;99684.30;;;0.08;70.25
75247;BME280;63844;50.042;19.224;2023-01-28T13:00:29;99688.23;;;0.14;70.72
75247;BME280;63844;50.042;19.224;2023-01-28T13:03:19;99690.99;;;0.16;70.22
75247;BME280;63844;50.042;19.224;2023-01-28T13:05:55;99699.36;;;0.14;69.89
75247;BME280;63844;50.042;19.224;2023-01-28T13:08:26;99705.50;;;0.11;69.87
75247;BME280;63844;50.042;19.224;2023-01-28T13:10:54;99704.82;;;0.10;69.78
75247;BME280;63844;50.042;19.224;2023-01-28T13:13:39;99705.14;;;0.12;70.23
75247;BME280;63844;50.042;19.224;2023-01-28T13:16:11;99701.30;;;0.13;70.94
75247;BME280;63844;50.042;19.224;2023-01-28T13:18:44;99705.84;;;0.11;70.93
75247;BME280;63844;50.042;19.224;2023-01-28T13:21:13;99705.15;;;0.11;70.77
75247;BME280;63844;50.042;19.224;2023-01-28T13:23:47;99706.63;;;0.05;70.35
75247;BME280;63844;50.042;19.224;2023-01-28T13:28:49;99713.75;;;0.05;69.89
75247;BME280;63844;50.042;19.224;2023-01-28T13:31:18;99713.89;;;0.09;70.49
75247;BME280;63844;50.042;19.224;2023-01-28T13:33:48;99711.44;;;0.09;70.32
75247;BME280;63844;50.042;19.224;2023-01-28T13:36:38;99713.89;;;0.08;70.64
75247;BME280;63844;50.042;19.224;2023-01-28T13:41:47;99716.09;;;0.12;71.13
75247;BME280;63844;50.042;19.224;2023-01-28T13:44:32;99710.69;;;0.14;70.67
75247;BME280;63844;50.042;19.224;2023-01-28T13:49:54;99717.87;;;0.11;69.78
75247;BME280;63844;50.042;19.224;2023-01-28T13:52:25;99723.65;;;0.07;70.34
75247;BME280;63844;50.042;19.224;2023-01-28T13:55:23;99719.85;;;0.04;70.15
75247;BME280;63844;50.042;19.224;2023-01-28T14:17:51;99729.65;;;-0.16;70.85
75247;BME280;63844;50.042;19.224;2023-01-28T14:20:21;99734.52;;;-0.16;71.37
75247;BME280;63844;50.042;19.224;2023-01-28T14:22:49;99735.59;;;-0.17;71.59
75247;BME280;63844;50.042;19.224;2023-01-28T14:25:19;99742.73;;;-0.20;71.88
75247;BME280;63844;50.042;19.224;2023-01-28T14:27:52;99740.00;;;-0.25;72.01
75247;BME280;63844;50.042;19.224;2023-01-28T14:30:53;99739.49;;;-0.26;72.00
75247;BME280;63844;50.042;19.224;2023-01-28T14:33:20;99741.21;;;-0.24;72.23
75247;BME280;63844;50.042;19.224;2023-01-28T14:35:48;99742.95;;;-0.24;72.43
75247;BME280;63844;50.042;19.224;2023-01-28T14:38:18;99743.48;;;-0.25;72.69